KGNV/GNV METAR and TAF weather

Enter ICAO airport designator
Station Type Date Time Source
KGNV METAR 2019/04/25 09:53 UTC NOAA

KGNV 250953Z AUTO 00000KT 10SM CLR 17/13 A2999 RMK AO2 SLP153 T01670133


Station Type Date Time Source
KGNV Decoded METAR 2019/04/25 09:53 UTC NOAA

GAINESVILLE REGIONAL AIRPORT , FL, United States (KGNV) 29-42N 082-17W 45M
Apr 25, 2019 - 05:53 AM EDT / 2019.04.25 0953 UTC
Wind: Calm:0
Visibility: 10 mile(s):0
Sky conditions: clear
Temperature: 62.1 F (16.7 C)
Dew Point: 55.9 F (13.3 C)
Relative Humidity: 80%
Pressure (altimeter): 29.99 in. Hg (1015 hPa)
ob: KGNV 250953Z AUTO 00000KT 10SM CLR 17/13 A2999 RMK AO2 SLP153 T01670133
cycle: 10

Station Type Date Time Source
KGNV TAF 2019/04/25 06:36 UTC NOAA

TAF KGNV 250534Z 2506/2606 VRB02KT P6SM BKN250
FM251500 18005KT P6SM FEW060 BKN250
FM252000 20007KT P6SM SCT060 BKN150 BKN250
FM260200 20005KT P6SM FEW060 BKN200

Example: see airport list